Flight Track Log - Related Links

Times and Time Zones

All times are in EDT time to prevent confusion due to time zone crossing. See the N155DS flight status page for this flight to view local times or setup timezone preferences in your user account.

Time Position Orientation Groundspeed Altitude Reporting Facility
EDT Latitude Longitude Course Direction KTS MPH feet Rate Location/Type
Sun 02:08:20 PM 44.7567 -87.4800 197° South 127 146 2,300  Level Minneapolis Center
Sun 02:09:34 PM 44.7150 -87.4992 198° South 129 148 2,900 526 Climbing Minneapolis Center
Sun 02:10:37 PM 44.6742 -87.5192 199° South 130 150 3,500 528 Climbing Minneapolis Center
Sun 02:11:39 PM 44.6397 -87.5361 199° South 131 151 4,000 242 Climbing Minneapolis Center
Sun 02:12:00 PM 44.8382 -87.4239 197° South  Level FlightAware Approximate
Sun 02:12:41 PM 44.6017 -87.5556 200° South 135 155 4,000  Level Minneapolis Center
Sun 02:13:00 PM 44.8082 -87.4368 197° South  Level FlightAware Approximate
Sun 02:13:43 PM 44.5597 -87.5767 200° South 147 169 4,000  Level Minneapolis Center
Sun 02:14:45 PM 44.5175 -87.5969 199° South 154 177 4,000  Level Minneapolis Center
Sun 02:15:47 PM 44.4661 -87.6214 199° South 160 184 4,000  Level Minneapolis Center
Sun 02:16:49 PM 44.4233 -87.6419 199° South 161 185 4,000 242 Level Minneapolis Center
Sun 02:17:51 PM 44.3825 -87.6606 198° South 158 182 4,500 485 Climbing Minneapolis Center
Sun 02:19:05 PM 44.3383 -87.6814 199° South 148 170 5,100 529 Climbing Minneapolis Center
Sun 02:20:07 PM 44.2939 -87.7033 199° South 145 167 5,700 435 Climbing Minneapolis Center
Sun 02:21:09 PM 44.2569 -87.7203 198° South 142 163 6,000 145 Climbing Minneapolis Center
Sun 02:22:11 PM 44.2150 -87.7417 200° South 149 171 6,000  Level Minneapolis Center
Sun 02:23:13 PM 44.1703 -87.7636 199° South 163 188 6,000 48 Level Minneapolis Center
Sun 02:24:16 PM 44.1264 -87.7856 200° South 167 192 6,100 48 Climbing Minneapolis Center
Sun 02:25:18 PM 44.0742 -87.8111 199° South 168 193 6,100  Level Minneapolis Center
Sun 02:26:20 PM 44.0300 -87.8328 199° South 168 193 6,100  Level Minneapolis Center
Sun 02:27:22 PM 43.9864 -87.8536 199° South 166 191 6,100  Level Minneapolis Center
Sun 02:28:24 PM 43.9442 -87.8747 200° South 163 188 6,100  Level Minneapolis Center
Sun 02:29:26 PM 43.9014 -87.8950 199° South 162 186 6,100  Level Minneapolis Center
Sun 02:30:28 PM 43.8569 -87.9161 199° South 166 191 6,100  Level Minneapolis Center
Sun 02:31:30 PM 43.8042 -87.9419 199° South 170 196 6,100  Level Minneapolis Center
Sun 02:32:32 PM 43.7592 -87.9642 200° South 171 197 6,100  Level Minneapolis Center
Sun 02:33:34 PM 43.7142 -87.9858 199° South 171 197 6,100 -48 Level Minneapolis Center
Sun 02:34:36 PM 43.6692 -88.0069 199° South 170 196 6,000 -48 Descending Minneapolis Center
Sun 02:35:38 PM 43.6244 -88.0292 200° South 171 197 6,000  Level Minneapolis Center
Sun 02:36:14 PM 43.5939 -88.0397 194° South 171 197 6,000  Level Chicago Center
Sun 02:37:16 PM 43.5467 -88.0417 182° South 170 196 6,000  Level Chicago Center
Sun 02:38:18 PM 43.4989 -88.0469 185° South 170 196 6,000  Level Chicago Center
Sun 02:39:20 PM 43.4517 -88.0533 186° South 170 196 6,000  Level Chicago Center
Sun 02:40:23 PM 43.3961 -88.0606 185° South 170 196 6,000  Level Chicago Center
Sun 02:41:25 PM 43.3489 -88.0669 186° South 170 196 6,000  Level Chicago Center
Sun 02:42:27 PM 43.3014 -88.0731 185° South 170 196 6,000  Level Chicago Center
Sun 02:43:29 PM 43.2536 -88.0789 185° South 171 197 6,000  Level Chicago Center
Sun 02:44:31 PM 43.2053 -88.0839 184° South 173 199 6,000  Level Chicago Center
Sun 02:45:33 PM 43.1567 -88.0919 187° South 174 200 6,000  Level Chicago Center
Sun 02:46:35 PM 43.1003 -88.0986 185° South 174 200 6,000  Level Chicago Center
Sun 02:47:00 PM 43.0833 -88.1000 183° South 175 201 6,000  Level KMKE
Sun 02:48:00 PM 43.0333 -88.1000 180° South 173 199 6,000  Level KMKE
Sun 02:49:00 PM 42.9833 -88.1333 206° Southwest 175 201 6,000  Level KMKE
Sun 02:49:41 PM 42.9594 -88.1417 194° South 172 198 6,000 -291 Level Chicago Center
Sun 02:50:43 PM 42.9122 -88.1656 200° South 177 204 5,500 -484 Descending Chicago Center
Sun 02:51:45 PM 42.8642 -88.1881 199° South 181 208 5,000 -532 Descending Chicago Center
Sun 02:52:47 PM 42.8083 -88.2139 199° South 181 208 4,400 -484 Descending Chicago Center
Sun 02:53:49 PM 42.7583 -88.2158 182° South 180 207 4,000 -194 Descending Chicago Center
Sun 02:54:51 PM 42.7144 -88.2383 201° Southwest 172 198 4,000  Level Chicago Center
Sun 02:55:54 PM 42.6694 -88.2653 204° Southwest 173 199 4,000  Level Chicago Center
Sun 02:56:56 PM 42.6281 -88.2869 201° Southwest 168 193 4,000  Level Chicago Center
Sun 02:57:58 PM 42.5864 -88.3139 205° Southwest 165 190 4,000  Level Chicago Center
Sun 02:59:00 PM 42.5364 -88.3372 199° South 164 189 4,000  Level Chicago Center
Sun 03:00:02 PM 42.4942 -88.3156 159° South 160 184 4,000  Level Chicago Center
Sun 03:01:04 PM 42.4536 -88.3017 166° South 152 175 4,000  Level Chicago Center
Sun 03:02:06 PM 42.4086 -88.3183 195° South 160 184 4,000  Level Chicago Center
Sun 03:03:08 PM 42.3644 -88.3294 191° South 162 186 4,000  Level Chicago Center
Sun 03:04:10 PM 42.3158 -88.3353 185° South 160 184 4,000  Level Chicago Center
Sun 03:05:12 PM 42.2731 -88.3444 189° South 158 182 4,000 -194 Level Chicago Center
Sun 03:06:14 PM 42.2283 -88.3472 183° South 162 186 3,600 -484 Descending Chicago Center
Sun 03:07:16 PM 42.1689 -88.3525 184° South 174 200 3,000 -290 Descending Chicago Center
Sun 03:08:18 PM 42.1203 -88.3536 181° South 176 203 3,000  Level Chicago Center
Sun 03:09:20 PM 42.0744 -88.3569 183° South 172 198 3,000 -97 Level Chicago Center
Sun 03:10:22 PM 42.0300 -88.3528 176° South 166 191 2,800 -240 Descending Chicago Center
Sun 03:11:25 PM 41.9850 -88.3325 161° South 167 192 2,500 -288 Descending Chicago Center
Sun 03:12:27 PM 41.9411 -88.2950 148° Southeast 164 189 2,200 -242 Descending Chicago Center
Sun 03:13:29 PM 41.9019 -88.2831 167° South 161 185 2,000 -484 Descending Chicago Center
Sun 03:14:31 PM 41.8811 -88.2642 146° Southeast 140 161 1,200 -484 Descending Chicago Center
Sun 03:15:33 PM 41.9042 -88.2397 38° Northeast 135 155 1,000 -194 Descending Chicago Center

Login

Don't have an account? Register now (free) for customized features, flight alerts, and more!